createdAt,value
2017-11-07T00:00:20.404Z,25.07
2017-11-07T00:05:22.131Z,23.13
2017-11-07T00:10:23.850Z,22.50
2017-11-07T00:15:25.589Z,23.50
2017-11-07T00:20:27.309Z,31.50
2017-11-07T00:25:29.111Z,30.10
2017-11-07T00:30:30.822Z,24.87
2017-11-07T00:35:32.571Z,28.20
2017-11-07T00:40:35.053Z,27.67
2017-11-07T00:45:36.782Z,29.03
2017-11-07T00:50:39.203Z,29.73
2017-11-07T00:55:41.699Z,30.10
2017-11-07T01:00:44.377Z,30.40
2017-11-07T01:05:46.061Z,22.27
2017-11-07T01:10:48.457Z,23.33
2017-11-07T01:15:51.304Z,22.70
2017-11-07T01:20:53.801Z,27.03
2017-11-07T01:25:56.250Z,23.83
2017-11-07T01:30:57.979Z,25.30
2017-11-07T01:35:59.722Z,28.57
2017-11-07T01:41:01.409Z,23.97
2017-11-07T01:46:03.915Z,21.80
2017-11-07T01:51:06.464Z,25.20
2017-11-07T01:56:08.227Z,22.60
2017-11-07T02:01:10.723Z,20.50
2017-11-07T02:06:13.465Z,21.63
2017-11-07T02:11:15.940Z,19.77
2017-11-07T02:16:18.792Z,18.43
2017-11-07T02:21:20.549Z,19.67
2017-11-07T02:26:22.391Z,20.80
2017-11-07T02:31:24.149Z,17.57
2017-11-07T02:36:25.939Z,16.73
2017-11-07T02:41:27.764Z,19.10
2017-11-07T02:46:29.486Z,19.70
2017-11-07T02:51:31.195Z,17.50
2017-11-07T02:56:32.970Z,19.47
2017-11-07T03:01:34.687Z,19.70
2017-11-07T03:06:36.488Z,20.00
2017-11-07T03:11:38.268Z,17.90
2017-11-07T03:16:39.918Z,18.00
2017-11-07T03:21:42.427Z,16.27
2017-11-07T03:26:44.918Z,15.60
2017-11-07T03:31:46.596Z,16.03
2017-11-07T03:36:48.993Z,15.47
2017-11-07T03:41:50.710Z,13.87
2017-11-07T03:46:52.405Z,14.73
2017-11-07T03:51:54.096Z,16.03
2017-11-07T03:56:55.934Z,14.40
2017-11-07T04:01:57.603Z,15.13
2017-11-07T04:06:59.303Z,14.33
2017-11-07T04:12:00.973Z,12.60
2017-11-07T04:17:03.298Z,14.17
2017-11-07T04:22:10.138Z,14.07
2017-11-07T04:27:13.459Z,14.20
2017-11-07T04:32:22.175Z,13.60
2017-11-07T04:37:28.130Z,12.80
2017-11-07T04:42:33.659Z,14.13
2017-11-07T04:47:38.447Z,13.23
2017-11-07T04:52:42.191Z,13.43
2017-11-07T04:57:45.324Z,12.90
2017-11-07T05:02:47.685Z,12.50
2017-11-07T05:07:49.449Z,12.93
2017-11-07T05:12:51.172Z,13.23
2017-11-07T05:17:52.887Z,12.80
2017-11-07T05:22:54.886Z,13.47
2017-11-07T05:27:56.562Z,13.03
2017-11-07T05:32:58.249Z,15.40
2017-11-07T05:37:59.982Z,15.90
2017-11-07T05:43:02.767Z,16.30
2017-11-07T05:48:04.531Z,19.13
2017-11-07T05:53:07.045Z,14.40
2017-11-07T05:58:08.747Z,17.70
2017-11-07T06:03:11.308Z,15.60
2017-11-07T06:08:13.025Z,15.83
2017-11-07T06:13:15.312Z,16.60
2017-11-07T06:18:17.098Z,17.07
2017-11-07T06:23:18.801Z,17.27
2017-11-07T06:28:20.499Z,19.03
2017-11-07T06:33:22.230Z,20.00
2017-11-07T06:38:23.914Z,19.10
2017-11-07T06:43:25.620Z,18.03
2017-11-07T06:48:27.361Z,19.50
2017-11-07T06:53:29.065Z,17.87
2017-11-07T06:58:31.517Z,19.23
2017-11-07T07:03:33.210Z,19.23
2017-11-07T07:08:34.961Z,19.90
2017-11-07T07:13:36.774Z,20.93
2017-11-07T07:18:39.533Z,20.90
2017-11-07T07:23:41.251Z,22.23
2017-11-07T07:28:42.960Z,22.17
2017-11-07T07:33:47.814Z,25.70
2017-11-07T07:38:51.524Z,23.47
2017-11-07T07:43:53.301Z,22.70
2017-11-07T07:48:54.986Z,21.83
2017-11-07T07:53:56.675Z,21.00
2017-11-07T07:58:58.381Z,22.77
2017-11-07T08:04:00.137Z,23.40
2017-11-07T08:09:01.847Z,23.03
2017-11-07T08:14:03.635Z,26.37
2017-11-07T08:19:05.343Z,25.07
2017-11-07T08:24:07.110Z,22.80
2017-11-07T08:29:09.528Z,21.13
2017-11-07T08:34:11.989Z,23.40
2017-11-07T08:39:13.698Z,19.10
2017-11-07T08:44:15.370Z,20.77
2017-11-07T08:49:17.093Z,20.03
2017-11-07T08:54:18.812Z,30.13
2017-11-07T08:59:20.498Z,16.90
2017-11-07T09:04:22.181Z,15.77
2017-11-07T09:09:23.946Z,16.00
2017-11-07T09:14:25.661Z,16.00
2017-11-07T09:19:27.421Z,14.80
2017-11-07T09:24:29.875Z,17.30
2017-11-07T09:29:31.578Z,18.40
2017-11-07T09:34:33.283Z,16.33
2017-11-07T09:39:34.993Z,16.40
2017-11-07T09:44:36.699Z,17.60
2017-11-07T09:49:38.415Z,18.07
2017-11-07T09:54:40.155Z,16.70
2017-11-07T09:59:41.852Z,15.13
2017-11-07T10:04:43.579Z,15.93
2017-11-07T10:09:45.272Z,14.70
2017-11-07T10:14:46.943Z,14.37
2017-11-07T10:19:48.650Z,15.00
2017-11-07T10:24:50.413Z,18.10
2017-11-07T10:29:52.886Z,19.93
2017-11-07T10:34:54.587Z,18.80
2017-11-07T10:39:56.352Z,20.50
2017-11-07T10:44:58.097Z,18.23
2017-11-07T10:49:59.822Z,16.87
2017-11-07T10:55:02.498Z,16.27
2017-11-07T11:00:04.349Z,15.37
2017-11-07T11:05:06.051Z,16.20
2017-11-07T11:10:07.791Z,16.23
2017-11-07T11:15:09.612Z,18.07
2017-11-07T11:20:11.295Z,12.60
2017-11-07T11:25:12.966Z,14.60
2017-11-07T11:30:14.698Z,15.47
2017-11-07T11:35:16.407Z,16.97
2017-11-07T11:40:18.090Z,17.10
2017-11-07T11:45:19.841Z,16.30
2017-11-07T11:50:21.699Z,15.13
2017-11-07T11:55:23.514Z,15.33
2017-11-07T12:00:26.015Z,15.43
2017-11-07T12:05:27.762Z,15.07
2017-11-07T12:10:29.503Z,15.00
2017-11-07T12:15:31.226Z,16.27
2017-11-07T12:20:33.713Z,16.80
2017-11-07T12:25:35.462Z,17.53
2017-11-07T12:30:37.907Z,20.03
2017-11-07T12:35:39.694Z,17.33
2017-11-07T12:40:42.095Z,21.30
2017-11-07T12:45:44.655Z,22.50
2017-11-07T12:56:31.379Z,21.27
2017-11-07T13:01:34.230Z,16.90
2017-11-07T13:06:37.997Z,14.70
2017-11-07T13:11:41.249Z,16.43
2017-11-07T13:16:42.954Z,27.63
2017-11-07T13:21:44.638Z,22.37
2017-11-07T13:26:46.326Z,23.87
2017-11-07T13:31:48.040Z,22.83
2017-11-07T13:36:49.731Z,24.30
2017-11-07T13:41:51.398Z,24.10
2017-11-07T13:46:53.866Z,25.00
2017-11-07T13:51:55.847Z,26.73
2017-11-07T13:56:57.606Z,32.00
2017-11-07T14:01:59.326Z,26.20
2017-11-07T14:07:01.004Z,33.70
2017-11-07T14:12:02.726Z,27.70
2017-11-07T14:17:05.206Z,41.13
2017-11-07T14:22:06.915Z,30.83
2017-11-07T14:27:08.635Z,33.43
2017-11-07T14:32:11.060Z,29.17
2017-11-07T14:37:13.482Z,29.43
2017-11-07T14:42:15.166Z,27.90
2017-11-07T14:47:17.594Z,24.67
2017-11-07T14:52:19.269Z,26.30
2017-11-07T14:57:21.007Z,25.80
2017-11-07T15:02:23.356Z,25.30
2017-11-07T15:07:25.066Z,24.33
2017-11-07T15:12:26.761Z,23.07
2017-11-07T15:17:28.438Z,20.20
2017-11-07T15:22:30.098Z,26.60
2017-11-07T15:27:31.812Z,17.57
2017-11-07T15:32:33.494Z,18.33
2017-11-07T15:37:35.181Z,16.23
2017-11-07T15:42:39.600Z,17.90
2017-11-07T15:47:42.609Z,16.93
2017-11-07T15:52:44.345Z,17.10
2017-11-07T15:57:46.018Z,16.90
2017-11-07T16:02:47.686Z,17.27
2017-11-07T16:07:49.374Z,19.17
2017-11-07T16:12:51.104Z,17.47
2017-11-07T16:17:52.790Z,16.67
2017-11-07T16:22:54.466Z,18.67
2017-11-07T16:27:56.342Z,20.17
2017-11-07T16:32:58.147Z,19.00
2017-11-07T16:38:00.557Z,19.60
2017-11-07T16:43:03.066Z,19.27
2017-11-07T16:48:04.786Z,19.50
2017-11-07T16:53:06.602Z,21.00
2017-11-07T16:58:08.285Z,19.97
2017-11-07T17:03:09.962Z,19.80
2017-11-07T17:08:11.643Z,28.07
2017-11-07T17:13:13.349Z,22.00
2017-11-07T17:18:15.146Z,23.43
2017-11-07T17:23:16.926Z,20.90
2017-11-07T17:28:18.605Z,26.83
2017-11-07T17:33:20.291Z,23.27
2017-11-07T17:38:21.979Z,35.13
2017-11-07T17:43:23.643Z,25.53
2017-11-07T17:48:25.343Z,29.60
2017-11-07T17:53:27.774Z,36.03
2017-11-07T17:58:30.187Z,23.60
2017-11-07T18:03:33.348Z,20.27
2017-11-07T18:08:35.275Z,24.60
2017-11-07T18:13:36.999Z,22.43
2017-11-07T18:18:38.802Z,34.97
2017-11-07T18:23:40.487Z,28.60
2017-11-07T18:28:42.364Z,25.20
2017-11-07T18:33:44.060Z,26.80
2017-11-07T18:38:49.653Z,38.70
2017-11-07T18:43:52.478Z,22.67
2017-11-07T18:48:54.173Z,20.33
2017-11-07T18:53:56.911Z,20.90
2017-11-07T18:58:59.457Z,19.87
2017-11-07T19:04:01.167Z,18.63
2017-11-07T19:09:03.734Z,19.00
2017-11-07T19:14:05.530Z,22.23
2017-11-07T19:19:07.315Z,21.47
2017-11-07T19:24:09.181Z,20.97
2017-11-07T19:29:11.724Z,21.17
2017-11-07T19:34:13.490Z,22.50
2017-11-07T19:39:15.189Z,22.53
2017-11-07T19:44:16.985Z,21.20
2017-11-07T19:49:19.138Z,21.30
2017-11-07T19:54:21.031Z,20.93
2017-11-07T19:59:22.716Z,20.50
2017-11-07T20:04:25.284Z,20.70
2017-11-07T20:09:26.974Z,20.03
2017-11-07T20:14:28.686Z,20.87
2017-11-07T20:19:30.394Z,18.80
2017-11-07T20:24:32.151Z,20.20
2017-11-07T20:29:33.910Z,20.47
2017-11-07T20:34:35.605Z,21.37
2017-11-07T20:39:40.544Z,18.70
2017-11-07T20:44:43.355Z,21.83
2017-11-07T20:49:45.917Z,20.07
2017-11-07T20:54:47.631Z,19.90
2017-11-07T20:59:50.075Z,20.90
2017-11-07T21:04:51.791Z,20.27
2017-11-07T21:09:53.622Z,20.30
2017-11-07T21:14:55.349Z,20.90
2017-11-07T21:19:57.061Z,21.70
2017-11-07T21:24:59.957Z,21.63
2017-11-07T21:30:01.889Z,19.23
2017-11-07T21:35:04.437Z,21.90
2017-11-07T21:40:06.962Z,20.30
2017-11-07T21:45:09.492Z,20.10
2017-11-07T21:50:12.264Z,18.37
2017-11-07T21:55:14.360Z,20.30
2017-11-07T22:00:16.804Z,19.50
2017-11-07T22:05:18.496Z,18.53
2017-11-07T22:10:20.280Z,20.90
2017-11-07T22:15:22.043Z,19.80
2017-11-07T22:20:23.799Z,19.93
2017-11-07T22:25:25.569Z,20.93
2017-11-07T22:30:27.315Z,19.40
2017-11-07T22:35:29.219Z,18.70
2017-11-07T22:40:30.928Z,19.03
2017-11-07T22:45:32.633Z,20.40
2017-11-07T22:50:34.435Z,19.67
2017-11-07T22:55:36.226Z,19.47
2017-11-07T23:00:37.984Z,20.73
2017-11-07T23:05:39.650Z,20.90
2017-11-07T23:10:41.370Z,19.63
2017-11-07T23:15:43.810Z,21.10
2017-11-07T23:20:45.526Z,21.93
2017-11-07T23:25:47.211Z,21.00
2017-11-07T23:30:48.931Z,20.93
2017-11-07T23:35:51.001Z,19.80
2017-11-07T23:40:52.715Z,20.30
2017-11-07T23:45:54.411Z,21.83
2017-11-07T23:50:56.228Z,21.93
2017-11-07T23:55:57.962Z,22.10
